createdAt,value
2018-12-22T00:01:39.052Z,60.20
2018-12-22T00:04:07.513Z,61.67
2018-12-22T00:06:36.034Z,66.23
2018-12-22T00:09:05.743Z,58.07
2018-12-22T00:11:34.200Z,64.07
2018-12-22T00:14:03.684Z,62.97
2018-12-22T00:16:34.884Z,58.47
2018-12-22T00:19:20.495Z,55.90
2018-12-22T00:21:49.349Z,59.07
2018-12-22T00:24:17.775Z,60.80
2018-12-22T00:26:46.288Z,58.50
2018-12-22T00:29:14.945Z,60.67
2018-12-22T00:31:43.663Z,63.00
2018-12-22T00:34:12.196Z,63.67
2018-12-22T00:36:40.716Z,57.80
2018-12-22T00:39:09.177Z,62.53
2018-12-22T00:41:37.646Z,64.23
2018-12-22T00:44:06.331Z,57.77
2018-12-22T00:46:35.108Z,58.57
2018-12-22T00:49:03.627Z,58.20
2018-12-22T00:51:32.307Z,56.03
2018-12-22T00:54:00.772Z,52.30
2018-12-22T00:56:29.274Z,55.93
2018-12-22T00:58:58.004Z,54.33
2018-12-22T01:01:26.470Z,56.53
2018-12-22T01:03:55.008Z,55.27
2018-12-22T01:06:23.816Z,55.60
2018-12-22T01:08:52.555Z,48.97
2018-12-22T01:11:21.796Z,56.13
2018-12-22T01:13:50.502Z,51.53
2018-12-22T01:16:19.184Z,63.20
2018-12-22T01:18:47.774Z,58.10
2018-12-22T01:21:16.224Z,56.37
2018-12-22T01:23:44.671Z,60.70
2018-12-22T01:26:13.158Z,53.53
2018-12-22T01:28:41.573Z,53.90
2018-12-22T01:31:10.420Z,57.17
2018-12-22T01:33:38.886Z,64.70
2018-12-22T01:36:07.363Z,59.20
2018-12-22T01:38:36.293Z,54.10
2018-12-22T01:41:04.767Z,50.83
2018-12-22T01:43:33.205Z,48.33
2018-12-22T01:46:01.655Z,52.73
2018-12-22T01:48:30.136Z,51.07
2018-12-22T01:50:58.584Z,52.57
2018-12-22T01:53:27.067Z,53.77
2018-12-22T01:55:55.538Z,57.67
2018-12-22T01:58:23.969Z,51.93
2018-12-22T02:00:53.546Z,54.07
2018-12-22T02:03:22.059Z,52.10
2018-12-22T02:05:50.557Z,50.63
2018-12-22T02:08:19.216Z,51.70
2018-12-22T02:10:47.686Z,51.90
2018-12-22T02:13:16.164Z,48.70
2018-12-22T02:15:44.883Z,49.43
2018-12-22T02:18:13.869Z,47.03
2018-12-22T02:20:42.749Z,46.20
2018-12-22T02:23:11.431Z,48.00
2018-12-22T02:25:39.908Z,46.50
2018-12-22T02:28:08.815Z,46.30
2018-12-22T02:30:37.276Z,47.63
2018-12-22T02:33:06.443Z,43.67
2018-12-22T02:35:35.069Z,46.90
2018-12-22T02:38:03.564Z,46.47
2018-12-22T02:40:32.307Z,48.90
2018-12-22T02:43:00.835Z,41.33
2018-12-22T02:45:29.338Z,41.47
2018-12-22T02:47:58.000Z,39.30
2018-12-22T02:50:26.769Z,41.27
2018-12-22T02:52:55.253Z,43.70
2018-12-22T02:55:24.669Z,44.17
2018-12-22T02:57:53.123Z,43.53
2018-12-22T03:00:21.632Z,37.93
2018-12-22T03:02:50.059Z,40.97
2018-12-22T03:05:18.531Z,37.17
2018-12-22T03:07:47.015Z,32.13
2018-12-22T03:10:15.707Z,38.60
2018-12-22T03:12:44.368Z,37.03
2018-12-22T03:15:12.860Z,30.07
2018-12-22T03:17:41.530Z,33.13
2018-12-22T03:20:10.359Z,37.97
2018-12-22T03:22:38.840Z,37.67
2018-12-22T03:25:07.494Z,35.60
2018-12-22T03:27:36.090Z,34.90
2018-12-22T03:30:05.351Z,35.70
2018-12-22T03:32:34.835Z,32.60
2018-12-22T03:35:03.503Z,34.00
2018-12-22T03:37:31.999Z,29.77
2018-12-22T03:40:00.479Z,31.43
2018-12-22T03:42:28.913Z,33.90
2018-12-22T03:44:57.413Z,34.33
2018-12-22T03:47:26.084Z,33.63
2018-12-22T03:49:54.795Z,34.50
2018-12-22T03:52:23.317Z,34.20
2018-12-22T03:54:52.042Z,33.13
2018-12-22T03:57:20.459Z,31.30
2018-12-22T03:59:50.642Z,29.33
2018-12-22T04:02:19.067Z,30.03
2018-12-22T04:04:47.736Z,27.63
2018-12-22T04:07:16.226Z,31.87
2018-12-22T04:09:44.647Z,26.13
2018-12-22T04:12:13.103Z,25.20
2018-12-22T04:14:41.670Z,25.57
2018-12-22T04:17:10.124Z,27.60
2018-12-22T04:19:38.565Z,26.90
2018-12-22T04:22:07.287Z,27.70
2018-12-22T04:24:36.847Z,23.87
2018-12-22T04:27:05.269Z,22.90
2018-12-22T04:29:34.417Z,28.80
2018-12-22T04:32:03.101Z,28.07
2018-12-22T04:34:31.777Z,26.03
2018-12-22T04:37:00.267Z,24.73
2018-12-22T04:39:28.989Z,25.67
2018-12-22T04:41:57.659Z,26.17
2018-12-22T04:44:26.159Z,26.33
2018-12-22T04:46:55.483Z,25.00
2018-12-22T04:49:23.920Z,25.73
2018-12-22T04:51:52.400Z,25.30
2018-12-22T04:54:21.105Z,25.63
2018-12-22T04:56:49.592Z,29.10
2018-12-22T04:59:18.091Z,25.97
2018-12-22T05:01:46.560Z,26.57
2018-12-22T05:04:14.991Z,27.27
2018-12-22T05:06:43.470Z,24.70
2018-12-22T05:09:11.932Z,24.67
2018-12-22T05:11:40.424Z,23.60
2018-12-22T05:14:09.912Z,27.53
2018-12-22T05:16:38.582Z,27.73
2018-12-22T05:19:07.018Z,25.43
2018-12-22T05:21:36.438Z,28.57
2018-12-22T05:24:05.132Z,31.80
2018-12-22T05:26:33.592Z,27.27
2018-12-22T05:29:02.146Z,26.07
2018-12-22T05:31:30.583Z,25.27
2018-12-22T05:33:59.103Z,24.93
2018-12-22T05:36:27.630Z,25.57
2018-12-22T05:38:56.356Z,27.93
2018-12-22T05:41:25.042Z,26.80
2018-12-22T05:43:53.751Z,28.57
2018-12-22T05:46:22.581Z,25.37
2018-12-22T05:48:51.267Z,27.50
2018-12-22T05:51:19.767Z,25.90
2018-12-22T05:53:48.234Z,31.00
2018-12-22T05:56:16.679Z,28.80
2018-12-22T05:58:45.187Z,27.10
2018-12-22T06:01:16.316Z,26.30
2018-12-22T06:03:44.820Z,27.57
2018-12-22T06:06:13.501Z,29.80
2018-12-22T06:08:42.229Z,28.10
2018-12-22T06:11:13.954Z,25.60
2018-12-22T06:14:00.672Z,27.20
2018-12-22T06:16:29.196Z,26.63
2018-12-22T06:18:57.608Z,26.50
2018-12-22T06:21:26.485Z,27.23
2018-12-22T06:23:54.981Z,25.23
2018-12-22T06:26:24.897Z,27.60
2018-12-22T06:28:53.342Z,28.37
2018-12-22T06:31:21.824Z,26.47
2018-12-22T06:33:50.288Z,26.43
2018-12-22T06:36:19.181Z,26.67
2018-12-22T06:38:47.690Z,41.27
2018-12-22T06:41:16.164Z,26.00
2018-12-22T06:43:44.648Z,25.17
2018-12-22T06:46:13.145Z,26.83
2018-12-22T06:48:41.617Z,26.20
2018-12-22T06:51:10.074Z,29.13
2018-12-22T06:53:38.587Z,26.00
2018-12-22T06:56:07.068Z,28.23
2018-12-22T06:58:35.548Z,30.13
2018-12-22T07:01:04.059Z,26.93
2018-12-22T07:03:32.553Z,25.50
2018-12-22T07:06:01.207Z,28.00
2018-12-22T07:08:29.769Z,27.77
2018-12-22T07:10:58.578Z,28.60
2018-12-22T07:13:27.017Z,37.43
2018-12-22T07:15:55.532Z,37.70
2018-12-22T07:18:24.097Z,35.77
2018-12-22T07:20:52.777Z,31.87
2018-12-22T07:23:21.274Z,32.03
2018-12-22T07:25:49.718Z,32.73
2018-12-22T07:28:18.163Z,41.87
2018-12-22T07:30:46.672Z,55.87
2018-12-22T07:33:15.133Z,38.80
2018-12-22T07:35:43.597Z,40.17
2018-12-22T07:38:12.108Z,31.30
2018-12-22T07:40:40.913Z,29.67
2018-12-22T07:43:09.384Z,31.67
2018-12-22T07:45:38.176Z,32.57
2018-12-22T07:48:06.639Z,34.30
2018-12-22T07:50:35.106Z,33.93
2018-12-22T07:53:03.586Z,35.70
2018-12-22T07:55:32.086Z,40.97
2018-12-22T07:58:00.879Z,41.17
2018-12-22T08:00:34.752Z,41.67
2018-12-22T08:03:00.573Z,42.13
2018-12-22T08:05:29.084Z,44.13
2018-12-22T08:07:57.585Z,44.77
2018-12-22T08:10:26.302Z,40.67
2018-12-22T08:12:54.728Z,43.30
2018-12-22T08:15:23.243Z,42.00
2018-12-22T08:17:51.724Z,40.70
2018-12-22T08:20:20.537Z,41.73
2018-12-22T08:22:51.091Z,37.63
2018-12-22T08:25:19.545Z,39.60
2018-12-22T08:27:47.989Z,37.07
2018-12-22T08:30:16.472Z,64.50
2018-12-22T08:32:45.172Z,50.07
2018-12-22T08:35:13.639Z,43.43
2018-12-22T08:37:42.152Z,41.67
2018-12-22T08:40:10.723Z,39.63
2018-12-22T08:42:39.182Z,41.07
2018-12-22T08:45:07.969Z,42.67
2018-12-22T08:47:36.408Z,37.97
2018-12-22T08:50:09.300Z,41.67
2018-12-22T08:52:37.797Z,37.37
2018-12-22T08:55:06.947Z,41.03
2018-12-22T08:57:35.388Z,42.43
2018-12-22T09:00:06.225Z,38.70
2018-12-22T09:02:34.683Z,38.80
2018-12-22T09:05:03.344Z,37.80
2018-12-22T09:07:31.844Z,38.67
2018-12-22T09:10:00.312Z,32.77
2018-12-22T09:12:28.759Z,35.50
2018-12-22T09:14:57.251Z,43.60
2018-12-22T09:17:25.717Z,48.90
2018-12-22T09:19:54.137Z,34.47
2018-12-22T09:22:22.626Z,37.67
2018-12-22T09:24:51.323Z,34.90
2018-12-22T09:27:19.782Z,37.90
2018-12-22T09:29:48.265Z,31.23
2018-12-22T09:32:16.693Z,31.80
2018-12-22T09:34:45.141Z,34.00
2018-12-22T09:37:13.990Z,38.57
2018-12-22T09:39:42.420Z,36.07
2018-12-22T09:42:10.865Z,37.80
2018-12-22T09:44:39.361Z,35.90
2018-12-22T09:47:07.786Z,37.47
2018-12-22T09:49:36.271Z,37.50
2018-12-22T09:52:04.776Z,33.20
2018-12-22T09:54:33.202Z,28.90
2018-12-22T09:57:01.657Z,31.93
2018-12-22T09:59:30.136Z,39.17
2018-12-22T10:01:58.564Z,32.23
2018-12-22T10:04:27.771Z,35.47
2018-12-22T10:06:56.283Z,41.13
2018-12-22T10:09:24.725Z,40.13
2018-12-22T10:11:53.141Z,36.17
2018-12-22T10:14:21.651Z,41.80
2018-12-22T10:16:50.092Z,36.13
2018-12-22T10:19:18.571Z,46.80
2018-12-22T10:21:47.076Z,29.40
2018-12-22T10:24:15.527Z,29.50
2018-12-22T10:26:44.230Z,28.53
2018-12-22T10:29:12.744Z,23.07
2018-12-22T10:31:41.454Z,28.60
2018-12-22T10:34:12.520Z,22.50
2018-12-22T10:36:42.436Z,21.20
2018-12-22T10:39:13.085Z,22.43
2018-12-22T10:41:41.520Z,21.30
2018-12-22T10:44:10.000Z,23.57
2018-12-22T10:46:38.396Z,26.73
2018-12-22T10:49:06.823Z,28.33
2018-12-22T10:51:35.301Z,22.87
2018-12-22T10:54:03.853Z,23.50
2018-12-22T10:56:32.899Z,21.77
2018-12-22T10:59:01.380Z,17.30
2018-12-22T11:01:29.799Z,18.27
2018-12-22T11:03:58.272Z,19.23
2018-12-22T11:06:26.744Z,18.40
2018-12-22T11:08:56.919Z,16.93
2018-12-22T11:11:25.336Z,19.57
2018-12-22T11:13:53.804Z,17.73
2018-12-22T11:16:22.617Z,16.73
2018-12-22T11:18:53.065Z,19.63
2018-12-22T11:21:22.387Z,18.60
2018-12-22T11:23:51.453Z,18.80
2018-12-22T11:26:21.422Z,20.10
2018-12-22T11:28:50.279Z,20.63
2018-12-22T11:31:18.742Z,20.33
2018-12-22T11:33:47.189Z,22.13
2018-12-22T11:36:16.080Z,24.30
2018-12-22T11:38:44.645Z,23.87
2018-12-22T11:41:13.089Z,22.03
2018-12-22T11:43:43.275Z,23.53
2018-12-22T11:46:11.689Z,24.47
2018-12-22T11:48:41.077Z,25.13
2018-12-22T11:51:09.690Z,29.80
2018-12-22T11:53:38.156Z,24.13
2018-12-22T11:56:06.637Z,24.00
2018-12-22T11:58:35.213Z,21.70
2018-12-22T12:01:05.498Z,24.17
2018-12-22T12:03:33.936Z,22.30
2018-12-22T12:06:02.746Z,19.30
2018-12-22T12:08:31.188Z,18.97
2018-12-22T12:11:00.543Z,24.57
2018-12-22T12:13:29.146Z,20.30
2018-12-22T12:16:00.350Z,21.43
2018-12-22T12:21:27.046Z,35.23
2018-12-22T12:23:55.506Z,23.60
2018-12-22T12:26:23.946Z,19.30
2018-12-22T12:28:52.386Z,21.63
2018-12-22T12:31:21.398Z,20.73
2018-12-22T12:33:52.255Z,44.83
2018-12-22T12:36:20.763Z,27.40
2018-12-22T12:38:49.277Z,20.83
2018-12-22T12:41:17.772Z,23.07
2018-12-22T12:43:46.259Z,20.93
2018-12-22T12:46:14.737Z,24.67
2018-12-22T12:48:43.182Z,20.90
2018-12-22T12:51:11.673Z,23.27
2018-12-22T12:53:41.860Z,25.97
2018-12-22T12:56:10.557Z,19.87
2018-12-22T12:58:39.262Z,22.70
2018-12-22T13:01:07.712Z,21.03
2018-12-22T13:03:36.169Z,23.83
2018-12-22T13:06:04.673Z,19.93
2018-12-22T13:08:33.133Z,18.60
2018-12-22T13:11:01.610Z,18.73
2018-12-22T13:13:36.568Z,21.53
2018-12-22T13:16:05.017Z,22.57
2018-12-22T13:18:33.942Z,20.43
2018-12-22T13:21:04.830Z,21.53
2018-12-22T13:23:33.342Z,26.37
2018-12-22T13:26:02.061Z,23.30
2018-12-22T13:28:32.703Z,22.40
2018-12-22T13:31:01.182Z,23.73
2018-12-22T13:33:32.667Z,19.17
2018-12-22T13:36:01.867Z,23.10
2018-12-22T13:38:30.436Z,21.87
2018-12-22T13:40:58.925Z,25.40
2018-12-22T13:43:27.417Z,21.90
2018-12-22T13:45:55.847Z,22.37
2018-12-22T13:48:24.515Z,24.03
2018-12-22T13:50:53.532Z,25.43
2018-12-22T13:53:22.088Z,19.33
2018-12-22T13:55:50.782Z,19.40
2018-12-22T13:58:19.267Z,20.77
2018-12-22T14:00:47.809Z,20.70
2018-12-22T14:03:16.932Z,22.00
2018-12-22T14:05:45.496Z,18.37
2018-12-22T14:08:13.948Z,15.90
2018-12-22T14:10:42.516Z,15.17
2018-12-22T14:13:11.000Z,16.13
2018-12-22T14:15:41.211Z,14.63
2018-12-22T14:18:15.999Z,17.00
2018-12-22T14:20:46.243Z,16.83
2018-12-22T14:23:14.818Z,16.07
2018-12-22T14:25:43.312Z,21.93
2018-12-22T14:28:11.781Z,19.93
2018-12-22T14:30:41.264Z,18.40
2018-12-22T14:33:10.072Z,13.30
2018-12-22T14:35:38.521Z,15.63
2018-12-22T14:38:07.059Z,13.57
2018-12-22T14:40:35.997Z,18.00
2018-12-22T14:43:04.457Z,14.30
2018-12-22T14:45:33.937Z,17.53
2018-12-22T14:48:03.603Z,16.00
2018-12-22T14:50:32.921Z,15.27
2018-12-22T14:53:01.427Z,16.27
2018-12-22T14:55:32.109Z,13.67
2018-12-22T14:58:02.206Z,15.13
2018-12-22T15:00:32.527Z,15.83
2018-12-22T15:03:01.053Z,14.50
2018-12-22T15:05:29.712Z,15.10
2018-12-22T15:07:58.371Z,76.50
2018-12-22T15:10:27.364Z,24.43
2018-12-22T15:12:55.886Z,22.33
2018-12-22T15:15:24.413Z,26.57
2018-12-22T15:17:53.194Z,19.93
2018-12-22T15:20:26.492Z,19.70
2018-12-22T15:22:55.220Z,19.73
2018-12-22T15:25:23.723Z,23.87
2018-12-22T15:27:52.253Z,34.47
2018-12-22T15:30:21.091Z,33.70
2018-12-22T15:32:54.494Z,35.17
2018-12-22T15:35:20.068Z,34.50
2018-12-22T15:37:48.527Z,28.20
2018-12-22T15:40:18.671Z,34.27
2018-12-22T15:42:47.738Z,31.90
2018-12-22T15:45:17.464Z,32.30
2018-12-22T15:47:47.288Z,32.70
2018-12-22T15:50:20.902Z,32.80
2018-12-22T15:52:49.389Z,33.33
2018-12-22T15:55:17.910Z,35.47
2018-12-22T15:57:46.603Z,31.33
2018-12-22T16:00:15.137Z,34.53
2018-12-22T16:02:52.792Z,26.50
2018-12-22T16:05:15.457Z,24.53
2018-12-22T16:07:44.097Z,28.37
2018-12-22T16:10:16.016Z,27.23
2018-12-22T16:12:45.353Z,152.33
2018-12-22T16:15:18.174Z,61.50
2018-12-22T16:17:46.816Z,34.17
2018-12-22T16:20:15.264Z,35.10
2018-12-22T16:22:48.061Z,33.03
2018-12-22T16:25:16.572Z,27.80
2018-12-22T16:27:45.240Z,31.53
2018-12-22T16:30:18.268Z,34.07
2018-12-22T16:32:47.322Z,32.13
2018-12-22T16:35:15.926Z,30.33
2018-12-22T16:37:44.431Z,29.37
2018-12-22T16:40:13.330Z,27.50
2018-12-22T16:42:41.777Z,23.80
2018-12-22T16:45:16.261Z,32.80
2018-12-22T16:47:44.767Z,34.17
2018-12-22T16:50:15.749Z,26.97
2018-12-22T16:52:44.557Z,29.57
2018-12-22T16:55:16.283Z,37.93
2018-12-22T16:58:02.301Z,40.30
2018-12-22T17:00:34.865Z,39.50
2018-12-22T17:03:10.766Z,40.23
2018-12-22T17:05:34.971Z,37.87
2018-12-22T17:08:05.689Z,35.67
2018-12-22T17:10:34.335Z,35.43
2018-12-22T17:13:02.839Z,33.53
2018-12-22T17:15:31.292Z,32.97
2018-12-22T17:17:59.762Z,35.33
2018-12-22T17:20:28.845Z,37.47
2018-12-22T17:23:08.036Z,39.33
2018-12-22T17:25:38.866Z,29.10
2018-12-22T17:28:07.400Z,31.00
2018-12-22T17:30:36.796Z,31.90
2018-12-22T17:33:05.469Z,26.53
2018-12-22T17:35:34.368Z,25.90
2018-12-22T17:38:03.217Z,24.20
2018-12-22T17:40:31.787Z,26.77
2018-12-22T17:43:00.316Z,26.67
2018-12-22T17:45:28.836Z,25.60
2018-12-22T17:47:57.335Z,28.10
2018-12-22T17:50:25.895Z,22.30
2018-12-22T17:52:55.427Z,8.70
2018-12-22T17:55:25.045Z,1.47
2018-12-22T17:57:55.786Z,0.73
2018-12-22T18:00:24.268Z,1.23
2018-12-22T18:02:53.439Z,1.87
2018-12-22T18:05:23.126Z,0.60
2018-12-22T18:07:52.714Z,2.93
2018-12-22T18:10:21.248Z,2.00
2018-12-22T18:12:50.213Z,0.63
2018-12-22T18:15:22.638Z,0.40
2018-12-22T18:17:51.472Z,2.00
2018-12-22T18:20:20.878Z,0.80
2018-12-22T18:22:49.540Z,0.40
2018-12-22T18:25:21.232Z,0.53
2018-12-22T18:27:52.414Z,0.47
2018-12-22T18:30:21.297Z,0.70
2018-12-22T18:32:49.763Z,0.47
2018-12-22T18:35:18.891Z,0.43
2018-12-22T18:37:47.607Z,0.20
2018-12-22T18:40:19.873Z,0.40
2018-12-22T18:42:49.674Z,0.50
2018-12-22T18:45:18.279Z,0.63
2018-12-22T18:47:47.467Z,0.30
2018-12-22T18:50:21.479Z,0.30
2018-12-22T18:52:49.981Z,1.17
2018-12-22T18:55:18.767Z,5.13
2018-12-22T18:57:50.313Z,0.10
2018-12-22T19:00:21.318Z,0.50
2018-12-22T19:02:51.090Z,0.20
2018-12-22T19:05:22.209Z,0.40
2018-12-22T19:07:50.894Z,1.50
2018-12-22T19:10:25.039Z,1.77
2018-12-22T19:12:53.537Z,0.40
2018-12-22T19:15:22.124Z,0.80
2018-12-22T19:17:50.748Z,0.50
2018-12-22T19:20:28.687Z,0.50
2018-12-22T19:22:57.263Z,0.80
2018-12-22T19:25:28.174Z,0.40
2018-12-22T19:27:56.866Z,0.60
2018-12-22T19:30:25.407Z,0.50
2018-12-22T19:32:54.931Z,0.60
2018-12-22T19:35:23.731Z,0.40
2018-12-22T19:37:52.215Z,0.67
2018-12-22T19:40:22.448Z,0.60
2018-12-22T19:42:52.711Z,0.50
2018-12-22T19:45:23.478Z,0.30
2018-12-22T19:47:53.217Z,0.50
2018-12-22T19:50:21.751Z,0.33
2018-12-22T19:52:51.296Z,0.40
2018-12-22T19:55:20.059Z,0.80
2018-12-22T19:57:48.682Z,3.00
2018-12-22T20:00:17.190Z,2.70
2018-12-22T20:02:46.256Z,1.37
2018-12-22T20:05:15.725Z,2.47
2018-12-22T20:07:44.336Z,2.30
2018-12-22T20:10:12.958Z,0.30
2018-12-22T20:12:41.472Z,29.13
2018-12-22T20:15:10.020Z,2.23
2018-12-22T20:17:38.796Z,0.30
2018-12-22T20:20:09.659Z,0.20
2018-12-22T20:22:38.216Z,1.03
2018-12-22T20:25:06.842Z,0.50
2018-12-22T20:27:35.386Z,0.20
2018-12-22T20:30:04.904Z,0.20
2018-12-22T20:32:33.599Z,0.43
2018-12-22T20:35:02.673Z,0.37
2018-12-22T20:37:31.400Z,0.77
2018-12-22T20:40:00.917Z,0.40
2018-12-22T20:42:29.506Z,0.50
2018-12-22T20:44:59.352Z,0.83
2018-12-22T20:47:27.959Z,0.30
2018-12-22T20:49:56.457Z,1.23
2018-12-22T20:52:25.582Z,0.80
2018-12-22T20:54:54.326Z,0.70
2018-12-22T20:57:23.050Z,0.50
2018-12-22T20:59:52.569Z,0.47
2018-12-22T21:02:21.100Z,0.30
2018-12-22T21:04:50.090Z,3.00
2018-12-22T21:07:18.854Z,2.63
2018-12-22T21:09:47.668Z,1.67
2018-12-22T21:12:17.349Z,1.60
2018-12-22T21:14:46.542Z,1.53
2018-12-22T21:17:15.131Z,1.47
2018-12-22T21:19:43.999Z,1.77
2018-12-22T21:22:13.374Z,2.47
2018-12-22T21:24:41.946Z,4.77
2018-12-22T21:27:11.061Z,10.53
2018-12-22T21:29:39.763Z,12.90
2018-12-22T21:32:09.367Z,11.23
2018-12-22T21:34:38.907Z,13.20
2018-12-22T21:37:07.586Z,13.03
2018-12-22T21:39:37.047Z,14.63
2018-12-22T21:42:05.597Z,14.43
2018-12-22T21:44:34.188Z,14.40
2018-12-22T21:47:03.657Z,13.67
2018-12-22T21:49:32.170Z,14.20
2018-12-22T21:52:01.354Z,17.03
2018-12-22T21:54:30.015Z,17.07
2018-12-22T21:56:58.627Z,17.40
2018-12-22T21:59:27.877Z,17.73
2018-12-22T22:01:56.550Z,17.80
2018-12-22T22:04:26.181Z,17.47
2018-12-22T22:06:54.714Z,16.30
2018-12-22T22:09:23.162Z,17.50
2018-12-22T22:11:52.073Z,18.77
2018-12-22T22:14:20.658Z,17.77
2018-12-22T22:16:49.137Z,23.07
2018-12-22T22:19:17.570Z,22.33
2018-12-22T22:21:46.038Z,22.07
2018-12-22T22:24:14.504Z,20.70
2018-12-22T22:26:43.123Z,23.53
2018-12-22T22:29:12.563Z,24.57
2018-12-22T22:31:41.042Z,19.50
2018-12-22T22:34:09.811Z,19.97
2018-12-22T22:36:38.417Z,24.67
2018-12-22T22:39:07.112Z,19.73
2018-12-22T22:41:35.625Z,22.17
2018-12-22T22:44:04.173Z,18.67
2018-12-22T22:46:33.038Z,22.03
2018-12-22T22:49:01.470Z,22.57
2018-12-22T22:51:29.937Z,19.67
2018-12-22T22:53:58.380Z,21.63
2018-12-22T22:56:26.806Z,24.80
2018-12-22T22:58:55.268Z,27.53
2018-12-22T23:01:24.146Z,28.77
2018-12-22T23:03:52.827Z,26.17
2018-12-22T23:06:21.357Z,27.73
2018-12-22T23:08:49.866Z,25.53
2018-12-22T23:11:18.344Z,24.97
2018-12-22T23:13:46.777Z,23.37
2018-12-22T23:16:15.228Z,19.90
2018-12-22T23:18:43.680Z,16.43
2018-12-22T23:21:12.161Z,10.20
2018-12-22T23:23:40.591Z,7.23
2018-12-22T23:26:09.037Z,2.83
2018-12-22T23:28:37.490Z,3.30
2018-12-22T23:31:05.989Z,1.23
2018-12-22T23:33:34.413Z,0.40
2018-12-22T23:36:02.839Z,0.20
2018-12-22T23:38:31.296Z,0.10
2018-12-22T23:40:59.741Z,0.13
2018-12-22T23:43:28.167Z,0.23
2018-12-22T23:45:56.626Z,0.67
2018-12-22T23:48:25.294Z,11.63
2018-12-22T23:50:53.910Z,16.53
2018-12-22T23:53:22.366Z,15.30
2018-12-22T23:55:50.845Z,15.03
2018-12-22T23:58:19.315Z,14.40
